Main page
METAR-TAF:

METAR-TAF

Airports :

Jay Prakash Narayan International Airport

Patna, India

latitude: 25-36N, longitude: 085-06E, elevation: 51 m

Current weather observation

The report was made 29 minutes ago, at 09:30 UTC
Wind 9 kt from the West
Temperature 30°C
Humidity 19%
Pressure 1010 hPa
Visibility: 5000 m
haze

METAR: VEPT 010930Z 26009KT 5000 HZ NSC 30/04 Q1010 NOSIG

Time: 15:29 (09:59 UTC)

Forecast

The report was made 1 hour and 59 minutes ago, at 08:00 UTC
Forecast valid from 01 at 09 UTC to 01 at 18 UTC
Wind 10 kt from the West
Visibility: 5000 m
haze
Becoming
from 01 at 15 UTC to 01 at 17 UTC
Visibility: 3000 m
haze

TAF: VEPT 010800Z 0109/0118 28010KT 5000 HZ NSC BECMG 0115/0117 3000 HZ

Weather observations and forecasts of more than 4000 airports (METAR and TAF reports).

The available stations are represented by yellow and red dots on the map.

Hover mouse over dot to see the name of the station.

Then click to see weather observations and forecasts.

To change the map : click on the green buttons with a black cross to zoom in, on the green button with a dash to zoom out, or on the green arrows for adjacent maps.


METAR-TAF: